»·PEaware :: N900TB PABR-CYEV

N900TB :: PABR-CYEV

FLIGHT INFORMATION

Flight Status: Arrived
Operator: Privately registered:
United States
More flights under this callsign
Pilot: Anonymous 14085 (14085)
Aircraft: SOCATA TBM-900
(TBM9)
More flights by this aircraft type
Origin: PABR Wiley Post-Will Rogers Meml
United States
Destination: CYEV Zubko
Canada
More flights between these airports :: More routes between these airports
Route: SEJYY OKIKE TUNDA PYC SCC ARBEZ HARVZ 69N37
File this flight plan on PilotEdge
Remarks: RMK / SIMBRIEF
Altitude:
(Current/Filed)
29,000ft
Speed:
(Current/Filed)
317kts
Departed: 30-Jul-20 09:18 AM
Arrived: 30-Jul-20 11:16 AM
Distance/Time
Traveled:
510nm/1:58
Distance/Time
To Go:
Arrived

Flight Plot

Page will automatically refresh every two minutes.


Map Options




Map Legend


Flown Route
Filed Route
Departure Airport
Arrival Airport
Navaid (VOR, NDB)
Fix

Horizontal Profiles

Position Reports

Time Latitude Longitude Heading Altitude Ground
Speed
30-Jul-20 09:00 71.287231 -156.759582 268 14ft 0kts
30-Jul-20 09:01 71.287231 -156.759582 268 14ft 0kts
30-Jul-20 09:02 71.287231 -156.759582 268 14ft 0kts
30-Jul-20 09:03 71.287231 -156.759582 268 14ft 0kts
30-Jul-20 09:04 71.287231 -156.759582 268 14ft 0kts
30-Jul-20 09:05 71.287231 -156.759582 268 14ft 0kts
30-Jul-20 09:06 71.287231 -156.759582 268 14ft 0kts
30-Jul-20 09:07 71.287231 -156.759582 268 14ft 0kts
30-Jul-20 09:08 71.287231 -156.759583 268 14ft 0kts
30-Jul-20 09:09 71.287231 -156.759583 268 14ft 0kts
30-Jul-20 09:10 71.287231 -156.759583 268 14ft 0kts
30-Jul-20 09:11 71.287231 -156.759583 268 14ft 0kts
30-Jul-20 09:12 71.287231 -156.759583 268 14ft 0kts
30-Jul-20 09:13 71.287067 -156.759255 105 15ft 3kts
30-Jul-20 09:14 71.286568 -156.756211 171 16ft 4kts
30-Jul-20 09:15 71.285139 -156.756056 161 17ft 4kts
30-Jul-20 09:16 71.284883 -156.747795 89 25ft 11kts
30-Jul-20 09:17 71.284892 -156.751998 269 21ft 70kts
30-Jul-20 09:18 71.292582 -156.837750 339 1380ft 141kts
30-Jul-20 09:19 71.330305 -156.824302 81 3517ft 158kts
30-Jul-20 09:20 71.306398 -156.725875 142 5566ft 150kts
30-Jul-20 09:21 71.275923 -156.638352 143 7932ft 150kts
30-Jul-20 09:22 71.251019 -156.533746 122 10216ft 158kts
30-Jul-20 09:23 71.235244 -156.405209 117 12533ft 161kts
30-Jul-20 09:25 71.221133 -156.271707 118 14601ft 165kts
30-Jul-20 09:26 71.206906 -156.134885 119 16472ft 169kts
30-Jul-20 09:27 71.192318 -155.995300 120 18167ft 172kts
30-Jul-20 09:28 71.177334 -155.853006 120 19712ft 175kts
30-Jul-20 09:29 71.161929 -155.708176 121 21195ft 184kts
30-Jul-20 09:30 71.146074 -155.560071 122 23467ft 182kts
30-Jul-20 09:31 71.129910 -155.410769 123 25410ft 186kts
30-Jul-20 09:32 71.113235 -155.258077 124 27161ft 189kts
30-Jul-20 09:33 71.096230 -155.103678 124 28691ft 193kts
30-Jul-20 09:34 71.076936 -154.931389 121 29011ft 230kts
30-Jul-20 09:35 71.055114 -154.736592 118 29001ft 249kts
30-Jul-20 09:36 71.031810 -154.531330 118 29000ft 260kts
30-Jul-20 09:37 71.007090 -154.316718 118 28998ft 272kts
30-Jul-20 09:38 70.981283 -154.095334 118 28993ft 277kts
30-Jul-20 09:39 70.954993 -153.872789 118 29022ft 277kts
30-Jul-20 09:40 70.928476 -153.651248 118 29064ft 278kts
30-Jul-20 09:41 70.901586 -153.429376 118 29073ft 278kts
30-Jul-20 09:42 70.874230 -153.206562 119 29089ft 280kts
30-Jul-20 09:42 70.851086 -153.020434 118 29079ft 283kts
30-Jul-20 09:43 70.822456 -152.792466 116 29088ft 293kts
30-Jul-20 09:44 70.792728 -152.558531 116 29086ft 298kts
30-Jul-20 09:46 70.757375 -152.284410 117 29086ft 300kts
30-Jul-20 09:46 70.731710 -152.088030 117 29083ft 300kts
30-Jul-20 09:47 70.700604 -151.852783 117 29084ft 300kts
30-Jul-20 09:49 70.663885 -151.578898 117 29087ft 304kts
30-Jul-20 09:49 70.636915 -151.380282 117 29085ft 308kts
30-Jul-20 09:50 70.604063 -151.141321 118 29084ft 309kts
30-Jul-20 09:51 70.570856 -150.902671 116 29084ft 308kts
30-Jul-20 09:52 70.537497 -150.665751 116 29083ft 308kts
30-Jul-20 09:53 70.503942 -150.430504 116 29082ft 307kts
30-Jul-20 09:54 70.469992 -150.195450 117 29071ft 307kts
30-Jul-20 09:55 70.438480 -149.979869 117 29074ft 307kts
30-Jul-20 09:56 70.401172 -149.727669 117 29072ft 307kts
30-Jul-20 09:57 70.366313 -149.494970 117 29074ft 307kts
30-Jul-20 09:58 70.331666 -149.266277 118 29497ft 294kts
30-Jul-20 09:59 70.298710 -149.051375 119 30427ft 279kts
30-Jul-20 10:00 70.266527 -148.844371 116 31069ft 279kts
30-Jul-20 10:01 70.233033 -148.629958 115 31068ft 293kts
30-Jul-20 10:02 70.198235 -148.409069 112 31062ft 299kts
30-Jul-20 10:03 70.177846 -148.168678 105 31064ft 302kts
30-Jul-20 10:04 70.156848 -147.928505 105 31063ft 303kts
30-Jul-20 10:05 70.135409 -147.688039 105 31062ft 304kts
30-Jul-20 10:06 70.117303 -147.488024 105 31062ft 304kts
30-Jul-20 10:07 70.091542 -147.208261 106 31063ft 304kts
30-Jul-20 10:08 70.069133 -146.969851 105 31063ft 303kts
30-Jul-20 10:09 70.046423 -146.730941 104 31064ft 303kts
30-Jul-20 10:10 70.023434 -146.493388 104 31063ft 304kts
30-Jul-20 10:11 70.000768 -146.254920 97 31057ft 303kts
30-Jul-20 10:12 70.001820 -146.009119 88 31165ft 300kts
30-Jul-20 10:13 70.003551 -145.766293 88 31275ft 300kts
30-Jul-20 10:14 70.004955 -145.520586 88 31207ft 304kts
30-Jul-20 10:15 70.006024 -145.274202 88 31255ft 302kts
30-Jul-20 10:16 70.006742 -145.028034 88 31273ft 304kts
30-Jul-20 10:17 70.007140 -144.778784 88 31276ft 308kts
30-Jul-20 10:18 70.007183 -144.527120 88 31275ft 310kts
30-Jul-20 10:19 70.006868 -144.274383 89 31274ft 311kts
30-Jul-20 10:20 70.006193 -144.021961 89 31274ft 311kts
30-Jul-20 10:21 70.005157 -143.768821 89 31275ft 311kts
30-Jul-20 10:22 70.003767 -143.516051 89 31274ft 311kts
30-Jul-20 10:23 70.002017 -143.263131 90 31274ft 311kts
30-Jul-20 10:24 69.998654 -143.009941 100 31256ft 313kts
30-Jul-20 10:25 69.967516 -142.771284 112 31277ft 316kts
30-Jul-20 10:26 69.933841 -142.533252 112 31274ft 317kts
30-Jul-20 10:27 69.899805 -142.295631 112 31274ft 318kts
30-Jul-20 10:28 69.865482 -142.058996 112 31274ft 318kts
30-Jul-20 10:29 69.830794 -141.822778 113 31274ft 318kts
30-Jul-20 10:30 69.795832 -141.587618 112 31274ft 318kts
30-Jul-20 10:31 69.760488 -141.352782 112 31274ft 318kts
30-Jul-20 10:32 69.724774 -141.118343 113 31267ft 318kts
30-Jul-20 10:33 69.688767 -140.884901 113 31233ft 320kts
30-Jul-20 10:34 69.652323 -140.651258 113 31228ft 320kts
30-Jul-20 10:35 69.617855 -140.432904 113 31228ft 320kts
30-Jul-20 10:36 69.585405 -140.229518 114 31228ft 320kts
30-Jul-20 10:37 69.548071 -139.998097 114 31228ft 320kts
30-Jul-20 10:38 69.533514 -139.908587 114 31228ft 320kts
30-Jul-20 10:39 69.495642 -139.677585 114 31228ft 320kts
30-Jul-20 10:40 69.457457 -139.447345 114 31228ft 320kts
30-Jul-20 10:41 69.419120 -139.218824 115 31228ft 320kts
30-Jul-20 10:42 69.380188 -138.989394 115 31228ft 321kts
30-Jul-20 10:43 69.341124 -138.761757 115 31229ft 321kts
30-Jul-20 10:44 69.301387 -138.532776 115 30960ft 328kts
30-Jul-20 10:45 69.261075 -138.303119 116 30953ft 324kts
30-Jul-20 10:46 69.220798 -138.076224 116 30954ft 323kts
30-Jul-20 10:47 69.180239 -137.850243 116 30954ft 322kts
30-Jul-20 10:48 69.139496 -137.625714 116 30927ft 323kts
30-Jul-20 10:49 69.098308 -137.401193 116 30890ft 323kts
30-Jul-20 10:50 69.056903 -137.177914 117 30890ft 322kts
30-Jul-20 10:51 69.015390 -136.956524 117 30890ft 322kts
30-Jul-20 10:52 68.973353 -136.734632 116 30891ft 323kts
30-Jul-20 10:53 68.931174 -136.514284 116 30891ft 323kts
30-Jul-20 10:54 68.888552 -136.293997 117 30697ft 329kts
30-Jul-20 10:55 68.842817 -136.060052 117 28903ft 357kts
30-Jul-20 10:56 68.794902 -135.817865 118 26903ft 359kts
30-Jul-20 10:57 68.745353 -135.570348 118 24837ft 356kts
30-Jul-20 10:58 68.695529 -135.324330 119 22739ft 349kts
30-Jul-20 10:59 68.648507 -135.094732 120 20721ft 337kts
30-Jul-20 11:00 68.602577 -134.872816 120 18490ft 332kts
30-Jul-20 11:01 68.557698 -134.658291 120 16198ft 322kts
30-Jul-20 11:02 68.516260 -134.448592 111 13862ft 302kts
30-Jul-20 11:03 68.487891 -134.237034 111 11551ft 291kts
30-Jul-20 11:04 68.460728 -134.036869 111 9227ft 274kts
30-Jul-20 11:05 68.451855 -133.841652 96 6675ft 255kts
30-Jul-20 11:06 68.445836 -133.651708 96 4161ft 249kts
30-Jul-20 11:07 68.439997 -133.466730 95 2017ft 233kts
30-Jul-20 11:08 68.435425 -133.311179 96 1980ft 190kts
30-Jul-20 11:09 68.407045 -133.202765 157 1607ft 180kts
30-Jul-20 11:10 68.359977 -133.185410 182 1329ft 160kts
30-Jul-20 11:11 68.322886 -133.218276 233 930ft 124kts
30-Jul-20 11:12 68.314538 -133.300591 254 1069ft 89kts
30-Jul-20 11:13 68.308686 -133.371580 255 1449ft 103kts
30-Jul-20 11:14 68.304851 -133.444043 262 475ft 92kts
30-Jul-20 11:15 68.303724 -133.485536 264 217ft 16kts
30-Jul-20 11:16 68.305140 -133.488103 339 225ft 6kts
30-Jul-20 11:17 68.305228 -133.494739 289 220ft 2kts
30-Jul-20 11:19 68.305843 -133.495968 350 224ft 0kts
30-Jul-20 11:20 68.305843 -133.495968 350 224ft 0kts

Navigation Log

Ident Type
Flight plan parsing failed, navigation log unavailable